Data for 05/24/2017

Time Sea-Level Adjusted Pressure Absolute Pressure Temperature Relative Humidity Dew Point   
(mb) (inHg) (mb) (inHg) (C) (F) (%) (C) (F)
00:05 1011 29.85 840 24.81 16.4 61.5 35 1 33.8
00:10 1011 29.85 840 24.81 16.6 62 36 1.7 35
00:15 1011 29.85 840 24.81 16.5 61.7 36 1.5 34.8
00:20 1011 29.85 840 24.81 16.5 61.7 37 1.8 35.3
00:25 1011 29.85 840 24.81 16.5 61.7 35 1.3 34.3
00:30 1011 29.85 840 24.81 16.5 61.7 36 1.6 34.8
00:35 1011 29.85 840 24.81 16.3 61.3 36 1.3 34.4
00:40 1011 29.85 840 24.81 16.5 61.6 35 1.1 33.9
00:45 1011 29.85 840 24.81 16.5 61.8 35 1 33.9
00:50 1011 29.85 840 24.81 16.4 61.6 36 1.4 34.5
00:55 1011 29.85 840 24.81 16.3 61.4 35 1 33.9
01:00 1011 29.85 840 24.81 16.4 61.5 37 1.7 35.1
01:05 1010 29.83 840 24.81 16.1 61 37 1.4 34.5
01:10 1010 29.83 840 24.81 16.1 61 37 1.4 34.5
01:15 1010 29.83 839 24.78 15.9 60.6 37 1.5 34.7
01:20 1010 29.83 839 24.78 15.6 60 39 1.7 35
01:25 1010 29.83 839 24.78 15.4 59.8 39 1.7 35
01:30 1010 29.83 839 24.78 15.3 59.5 40 1.7 35.1
01:35 1010 29.83 839 24.78 15.1 59.1 43 2.6 36.7
01:40 1010 29.83 839 24.78 14.2 57.6 45 2.4 36.3
01:45 1010 29.83 839 24.78 14 57.2 44 2.1 35.8
01:50 1010 29.83 839 24.78 14 57.1 44 2.1 35.8
01:55 1010 29.83 839 24.78 14 57.2 44 2.1 35.7
02:00 1010 29.83 839 24.78 13.8 56.9 45 2.2 36
02:05 1010 29.83 839 24.78 13.5 56.3 46 2.3 36.2
02:10 1010 29.83 839 24.78 13 55.5 48 2.2 36
02:15 1010 29.83 839 24.78 12.9 55.1 49 2.4 36.3
02:20 1009 29.8 839 24.78 12.8 55 49 2.3 36.1
02:25 1009 29.8 839 24.78 12.7 54.9 49 2.4 36.3
02:30 1009 29.8 839 24.78 12.5 54.6 50 2.3 36.2
02:35 1009 29.8 838 24.75 12.3 54.2 51 2.4 36.3
02:40 1009 29.8 838 24.75 12.3 54.1 50 2.3 36.2
02:45 1009 29.8 838 24.75 12.6 54.7 50 2.6 36.7
02:50 1009 29.8 838 24.75 12.7 54.9 47 1.6 34.9
02:55 1009 29.8 838 24.75 13.3 56 46 1.9 35.5
03:00 1009 29.8 838 24.75 13.4 56.2 46 2 35.5
03:05 1009 29.8 838 24.75 13.8 56.8 44 1.7 35.1
03:10 1009 29.8 838 24.75 13.5 56.3 46 2.1 35.8
03:15 1008 29.77 838 24.75 13.1 55.6 46 1.8 35.2
03:20 1008 29.77 838 24.75 13 55.4 43 0.9 33.7
03:25 1008 29.77 837 24.72 13.8 56.8 43 1.4 34.5
03:30 1008 29.77 837 24.72 13.1 55.5 46 1.7 35.1
03:35 1008 29.77 837 24.72 13.1 55.5 44 1.2 34.2
03:40 1008 29.77 837 24.72 13 55.4 46 1.7 35.1
03:45 1008 29.77 837 24.72 13.3 56 42 0.9 33.6
03:50 1008 29.77 837 24.72 14 57.1 39 0.4 32.8
03:55 1007 29.74 837 24.72 14.8 58.7 37 0.4 32.6
04:00 1007 29.74 837 24.72 15.4 59.7 36 0.5 32.8
04:05 1007 29.74 837 24.72 16 60.7 35 0.4 32.8
04:10 1007 29.74 837 24.72 16.4 61.5 34 0.4 32.7
04:15 1007 29.74 836 24.69 16.8 62.2 33 0.7 33.3
04:20 1007 29.74 836 24.69 17.2 62.9 32 0.4 32.8
04:25 1007 29.74 836 24.69 17.8 64 31 0.6 33
04:30 1007 29.74 836 24.69 17.9 64.3 32 1 33.9
04:35 1007 29.74 836 24.69 17.8 64.1 32 1.1 33.9
04:40 1007 29.74 836 24.69 17.8 64.1 32 1.2 34.1
04:45 1007 29.74 836 24.69 17.9 64.2 32 1.2 34.1
04:50 1007 29.74 836 24.69 18.1 64.6 32 1.2 34.2
04:55 1007 29.74 836 24.69 18.2 64.8 31 1.1 33.9
05:00 1006 29.71 836 24.69 18.3 65 31 1.2 34.1
05:05 1006 29.71 836 24.69 18.5 65.3 31 1.3 34.3
05:10 1006 29.71 835 24.66 18.6 65.5 31 1.3 34.3
05:15 1006 29.71 835 24.66 18.6 65.5 31 1.1 34
05:20 1006 29.71 835 24.66 18.6 65.5 31 1.4 34.6
05:25 1006 29.71 835 24.66 18.5 65.3 31 1.3 34.3
05:30 1006 29.71 835 24.66 18.4 65.1 32 1.6 34.9
05:35 1006 29.71 835 24.66 18.2 64.8 32 1.3 34.4
05:40 1006 29.71 835 24.66 18.4 65.1 32 1.5 34.8
05:45 1006 29.71 835 24.66 18.5 65.4 31 1.4 34.5
05:50 1006 29.71 835 24.66 18.6 65.5 31 1.3 34.3
05:55 1006 29.71 835 24.66 18.6 65.5 32 1.7 35
06:00 1006 29.71 835 24.66 18.5 65.2 32 1.6 34.9
06:05 1005 29.68 835 24.66 18.4 65 32 1.6 35
06:10 1005 29.68 835 24.66 18.1 64.7 34 2 35.6
06:15 1005 29.68 834 24.63 18 64.3 35 2.6 36.6
06:20 1005 29.68 834 24.63 17.9 64.3 35 2.3 36.1
06:25 1005 29.68 834 24.63 18.2 64.7 34 2.2 35.9
06:30 1005 29.68 834 24.63 18.4 65.2 34 2.6 36.6
06:35 1005 29.68 834 24.63 18.5 65.3 35 2.8 37
06:40 1005 29.68 834 24.63 18.7 65.7 34 2.5 36.5
06:45 1005 29.68 834 24.63 19.1 66.4 33 2.4 36.4
06:50 1005 29.68 834 24.63 19.5 67.1 32 2.7 36.9
06:55 1004 29.65 834 24.63 19.6 67.3 33 2.9 37.2
07:00 1004 29.65 834 24.63 20 67.9 31 2.5 36.5
07:05 1004 29.65 834 24.63 20.3 68.5 31 2.7 36.8
07:10 1004 29.65 833 24.6 20.7 69.2 30 2.5 36.5
07:15 1004 29.65 833 24.6 21 69.7 29 2.4 36.3
07:20 1004 29.65 833 24.6 21.2 70.2 29 2.7 36.8
07:25 1004 29.65 833 24.6 21.4 70.5 29 2.9 37.1
07:30 1004 29.65 833 24.6 21.6 71 28 2.4 36.3
07:35 1004 29.65 833 24.6 21.9 71.4 26 1.6 35
07:40 1004 29.65 833 24.6 22.2 72 26 2 35.7
07:45 1003 29.62 833 24.6 22.4 72.3 27 2.5 36.5
07:50 1003 29.62 833 24.6 22.5 72.6 27 2.7 36.9
07:55 1003 29.62 833 24.6 22.7 72.8 24 1.3 34.4
08:00 1003 29.62 832 24.57 22.5 72.6 22 0.1 32.2
08:05 1003 29.62 832 24.57 22.3 72.1 23 0.4 32.7
08:10 1003 29.62 832 24.57 22.2 72 24 1 33.8
08:15 1003 29.62 832 24.57 22.2 72 24 0.6 33.1
08:20 1003 29.62 832 24.57 22.5 72.5 22 0 32
08:25 1003 29.62 832 24.57 22.5 72.5 23 0.5 32.9
08:30 1003 29.62 832 24.57 22.5 72.4 22 -0.2 31.7
08:35 1003 29.62 832 24.57 22.4 72.3 23 0.4 32.7
08:40 1003 29.62 832 24.57 22.3 72.1 24 0.7 33.3
08:45 1003 29.62 832 24.57 22.4 72.3 24 0.9 33.6
08:50 1003 29.62 832 24.57 22.7 72.8 22 0.2 32.4
08:55 1003 29.62 832 24.57 22.7 72.8 23 0.6 33.1
09:00 1003 29.62 832 24.57 22.2 72 22 -0.1 31.8
09:05 1003 29.62 832 24.57 21.7 71.1 24 0.2 32.4
09:10 1003 29.62 832 24.57 21.8 71.2 24 0.4 32.7
09:15 1002 29.59 832 24.57 21.7 71 23 -0.2 31.7
09:20 1002 29.59 831 24.54 21.7 71.1 24 0.4 32.8
09:25 1002 29.59 831 24.54 21.7 71 25 0.7 33.3
09:30 1002 29.59 831 24.54 22 71.5 23 0.3 32.6
09:35 1002 29.59 831 24.54 21.9 71.3 24 0.8 33.5
09:40 1002 29.59 831 24.54 21.9 71.4 24 0.5 32.9
09:45 1002 29.59 831 24.54 22.7 72.9 22 -0.1 31.9
09:50 1002 29.59 831 24.54 22.5 72.4 22 -0.4 31.2
09:55 1002 29.59 831 24.54 22.5 72.4 26 2 35.5
10:00 1002 29.59 831 24.54 22.4 72.3 26 1.9 35.5
10:05 1002 29.59 831 24.54 21.7 71.1 26 1.5 34.8
10:10 1002 29.59 831 24.54 21.4 70.5 27 1.8 35.2
10:15 1002 29.59 831 24.54 21.4 70.5 27 1.6 34.9
10:20 1002 29.59 831 24.54 21 69.8 26 1 33.7
10:25 1002 29.59 831 24.54 20.9 69.6 25 0.1 32.2
10:30 1002 29.59 831 24.54 20.7 69.3 26 0.4 32.8
10:35 1002 29.59 831 24.54 20.5 68.9 26 0.3 32.6
10:40 1002 29.59 831 24.54 20.3 68.5 25 -0.2 31.6
10:45 1002 29.59 831 24.54 20.5 68.9 23 -1.2 29.9
10:50 1002 29.59 831 24.54 20.4 68.7 22 -1.8 28.8
10:55 1002 29.59 831 24.54 20 67.9 20 -3.5 25.6
11:00 1002 29.59 831 24.54 20 68.1 20 -3.7 25.3
11:05 1002 29.59 831 24.54 20.1 68.1 18 -4.8 23.4
11:10 1002 29.59 831 24.54 19.9 67.8 19 -4.4 24.1
11:15 1002 29.59 831 24.54 20 68 18 -4.6 23.8
11:20 1002 29.59 831 24.54 20.3 68.5 17 -5.7 21.8
11:25 1002 29.59 831 24.54 19.9 67.8 15 -7.2 19
11:30 1002 29.59 831 24.54 19.7 67.5 15 -7.7 18.2
11:35 1002 29.59 831 24.54 19.6 67.3 16 -7.1 19.2
11:40 1002 29.59 831 24.54 19.7 67.5 15 -7.2 19
11:45 1002 29.59 831 24.54 19.8 67.7 15 -7.2 19
11:50 1002 29.59 831 24.54 19.7 67.5 15 -7.5 18.5
11:55 1002 29.59 832 24.57 19.5 67.1 15 -7.6 18.3
12:00 1002 29.59 832 24.57 19.7 67.4 15 -7.7 18.1
12:05 1003 29.62 832 24.57 19.6 67.3 15 -7.3 18.9
12:10 1003 29.62 832 24.57 19.2 66.6 16 -7.5 18.5
12:15 1003 29.62 832 24.57 19.2 66.6 15 -7.9 17.8
12:20 1003 29.62 832 24.57 19 66.3 15 -8.1 17.4
12:25 1003 29.62 832 24.57 19 66.2 15 -8.1 17.5
12:30 1003 29.62 832 24.57 18.8 65.8 15 -8.4 16.8
12:35 1003 29.62 832 24.57 18.8 65.9 14 -8.8 16.2
12:40 1003 29.62 832 24.57 19 66.2 14 -8.6 16.5
12:45 1003 29.62 832 24.57 18.7 65.7 14 -9.6 14.8
12:50 1003 29.62 832 24.57 18.6 65.6 14 -9.2 15.4
12:55 1003 29.62 832 24.57 18.7 65.6 14 -9.4 15
13:00 1003 29.62 832 24.57 18.6 65.4 14 -9.1 15.6
13:05 1003 29.62 832 24.57 18.7 65.6 14 -9.1 15.7
13:10 1003 29.62 832 24.57 18.4 65.1 14 -9.5 15
13:15 1003 29.62 832 24.57 18 64.5 14 -9.9 14.1
13:20 1003 29.62 832 24.57 18 64.5 14 -9.5 14.9
13:25 1003 29.62 832 24.57 18 64.4 14 -9.7 14.6
13:30 1003 29.62 832 24.57 18.1 64.5 13 -10.4 13.2
13:35 1003 29.62 832 24.57 17.9 64.2 14 -9.8 14.3
13:40 1003 29.62 832 24.57 18.1 64.5 14 -9.7 14.6
13:45 1003 29.62 832 24.57 18.2 64.7 14 -9.6 14.8
13:50 1003 29.62 832 24.57 18.9 66 13 -10.2 13.6
13:55 1003 29.62 832 24.57 19.3 66.7 13 -9.9 14.2
14:00 1003 29.62 832 24.57 19.4 67 12 -10.4 13.2
14:05 1003 29.62 832 24.57 19.4 66.9 12 -10.7 12.8
14:10 1003 29.62 832 24.57 19.3 66.8 13 -9.8 14.4
14:15 1003 29.62 832 24.57 19.3 66.7 13 -9.7 14.5
14:20 1003 29.62 832 24.57 19.1 66.4 12 -10.7 12.7
14:25 1003 29.62 832 24.57 19.2 66.5 12 -11.1 12
14:30 1003 29.62 832 24.57 19.1 66.5 13 -10.2 13.7
14:35 1002 29.59 832 24.57 19.3 66.7 12 -10.9 12.4
14:40 1003 29.62 832 24.57 18.9 66 13 -10.5 13.1
14:45 1002 29.59 832 24.57 18.7 65.7 12 -11.4 11.4
14:50 1002 29.59 832 24.57 18.8 65.8 11 -12 10.5
14:55 1003 29.62 832 24.57 18.6 65.5 11 -12.2 10
15:00 1002 29.59 832 24.57 18.5 65.3 11 -12 10.4
15:05 1002 29.59 832 24.57 18.4 65.2 11 -12.1 10.2
15:10 1002 29.59 832 24.57 18.2 64.8 12 -11.6 11.2
15:15 1002 29.59 832 24.57 18.3 64.9 12 -11.6 11.1
15:20 1002 29.59 832 24.57 18.7 65.6 11 -12.1 10.2
15:25 1002 29.59 832 24.57 18.8 65.8 11 -12.7 9.1
15:30 1002 29.59 832 24.57 18.2 64.8 11 -12.3 9.9
15:35 1002 29.59 832 24.57 18.4 65.2 11 -12.2 10.1
15:40 1002 29.59 832 24.57 18.2 64.7 11 -12.3 9.9
15:45 1002 29.59 832 24.57 18.2 64.8 11 -13.3 8.1
15:50 1002 29.59 832 24.57 18 64.4 11 -13.2 8.2
15:55 1003 29.62 832 24.57 18.1 64.6 10 -13.5 7.7
16:00 1002 29.59 832 24.57 18.1 64.7 10 -13.6 7.6
16:05 1002 29.59 832 24.57 18.2 64.7 10 -13.8 7.1
16:10 1002 29.59 832 24.57 17.9 64.1 10 -14.1 6.6
16:15 1002 29.59 832 24.57 17.6 63.7 10 -14.7 5.6
16:20 1003 29.62 832 24.57 17.4 63.4 10 -14.8 5.4
16:25 1003 29.62 832 24.57 17.5 63.4 10 -14.4 6
16:30 1003 29.62 832 24.57 17.4 63.4 11 -13.9 7.1
16:35 1003 29.62 832 24.57 17.6 63.7 10 -14.4 6.1
16:40 1003 29.62 832 24.57 17.2 63 10 -14.6 5.7
16:45 1003 29.62 832 24.57 16.9 62.4 11 -13.6 7.4
16:50 1003 29.62 832 24.57 17.1 62.9 11 -13.1 8.5
16:55 1003 29.62 832 24.57 17.2 63 11 -13.2 8.2
17:00 1003 29.62 832 24.57 17.2 62.9 11 -13 8.6
17:05 1003 29.62 832 24.57 16.9 62.5 10 -14.5 5.9
17:10 1003 29.62 832 24.57 16.7 62 10 -14.7 5.5
17:15 1003 29.62 832 24.57 16.5 61.6 11 -14.4 6
17:20 1003 29.62 832 24.57 16.5 61.8 11 -13.7 7.4
17:25 1003 29.62 832 24.57 16.6 61.8 11 -13.6 7.6
17:30 1003 29.62 832 24.57 16.4 61.5 12 -13.6 7.6
17:35 1003 29.62 832 24.57 16.1 61 11 -14.1 6.6
17:40 1003 29.62 832 24.57 15.9 60.5 11 -14.3 6.3
17:45 1003 29.62 832 24.57 15.8 60.4 11 -14.4 6.1
17:50 1003 29.62 832 24.57 15.9 60.6 12 -13.7 7.4
17:55 1003 29.62 832 24.57 15.8 60.4 11 -14.3 6.2
18:00 1003 29.62 833 24.6 15.6 60.1 11 -14.3 6.2
18:05 1004 29.65 833 24.6 15.7 60.2 12 -14.1 6.6
18:10 1004 29.65 833 24.6 15.4 59.7 12 -13.4 7.8
18:15 1004 29.65 833 24.6 15.1 59.1 13 -13.4 7.9
18:20 1004 29.65 833 24.6 14.8 58.6 14 -12.7 9.1
18:25 1004 29.65 833 24.6 14.8 58.6 14 -12.5 9.6
18:30 1004 29.65 833 24.6 14.7 58.4 14 -12.7 9.1
18:35 1004 29.65 833 24.6 14.6 58.2 13 -13.3 8
18:40 1004 29.65 833 24.6 14.5 58.1 13 -13.5 7.7
18:45 1004 29.65 833 24.6 14.4 57.8 13 -13.4 7.9
18:50 1004 29.65 833 24.6 14.2 57.5 14 -12.5 9.4
18:55 1004 29.65 834 24.63 14 57.2 14 -12.7 9.1
19:00 1004 29.65 834 24.63 13.8 56.9 15 -12.7 9.2
19:05 1004 29.65 834 24.63 13.7 56.7 15 -12.6 9.3
19:10 1004 29.65 834 24.63 13.6 56.5 15 -12.7 9.1
19:15 1005 29.68 834 24.63 13.4 56.1 15 -12.6 9.4
19:20 1005 29.68 834 24.63 13.3 55.9 15 -12.7 9.1
19:25 1005 29.68 834 24.63 13.2 55.7 16 -12.4 9.6
19:30 1005 29.68 834 24.63 13 55.4 16 -12.6 9.3
19:35 1005 29.68 834 24.63 12.8 55 16 -12.2 10
19:40 1005 29.68 834 24.63 12.7 54.8 18 -10.9 12.5
19:45 1005 29.68 834 24.63 12.3 54.1 18 -11.1 12.1
19:50 1005 29.68 834 24.63 11.9 53.5 19 -11.1 12
19:55 1005 29.68 834 24.63 11.7 53.1 19 -11.5 11.3
20:00 1005 29.68 834 24.63 11.6 52.8 19 -11.5 11.3
20:05 1005 29.68 835 24.66 11.4 52.4 20 -11.1 12
20:10 1005 29.68 835 24.66 11.1 52.1 20 -10.9 12.3
20:15 1005 29.68 835 24.66 10.9 51.7 20 -10.9 12.4
20:20 1006 29.71 835 24.66 10.8 51.4 20 -11.2 11.9
20:25 1006 29.71 835 24.66 10.7 51.2 20 -11.3 11.7
20:30 1006 29.71 835 24.66 10.5 51 21 -11 12.2
20:35 1006 29.71 835 24.66 10.4 50.7 21 -11.1 12
20:40 1006 29.71 835 24.66 10.2 50.4 21 -10.9 12.4
20:45 1006 29.71 835 24.66 10.1 50.1 22 -10.6 12.8
20:50 1006 29.71 835 24.66 9.9 49.7 23 -10.3 13.4
20:55 1006 29.71 836 24.69 9.6 49.3 24 -10.1 13.8
21:00 1006 29.71 836 24.69 9.5 49 24 -10.1 13.9
21:05 1007 29.74 836 24.69 9.4 48.8 23 -10.5 13.1
21:10 1007 29.74 836 24.69 9.3 48.8 25 -9.9 14.1
21:15 1007 29.74 836 24.69 9.1 48.4 26 -9.3 15.2
21:20 1007 29.74 836 24.69 8.6 47.6 28 -8.9 16
21:25 1007 29.74 836 24.69 8 46.3 29 -9.1 15.7
21:30 1007 29.74 836 24.69 7.8 46.1 28 -9.6 14.8
21:35 1007 29.74 836 24.69 8.1 46.5 27 -10.1 13.9
21:40 1007 29.74 836 24.69 8.3 46.9 26 -9.9 14.2
21:45 1007 29.74 836 24.69 8.2 46.8 27 -9.7 14.5
21:50 1007 29.74 836 24.69 8.1 46.6 27 -9.6 14.7
21:55 1007 29.74 836 24.69 7.9 46.2 29 -9.2 15.5
22:00 1007 29.74 836 24.69 7.7 45.8 30 -8.9 16
22:05 1007 29.74 836 24.69 7.5 45.5 31 -8.7 16.3
22:10 1007 29.74 836 24.69 7.4 45.3 31 -8.6 16.6
22:15 1007 29.74 836 24.69 7.2 44.9 32 -8.4 16.8
22:20 1007 29.74 836 24.69 7.1 44.7 32 -8.5 16.7
22:25 1007 29.74 836 24.69 6.9 44.5 33 -8.2 17.2
22:30 1007 29.74 836 24.69 6.7 44.1 34 -8.2 17.3
22:35 1007 29.74 836 24.69 6.7 44.1 33 -8.5 16.7
22:40 1007 29.74 836 24.69 7 44.5 32 -8.8 16.2
22:45 1007 29.74 836 24.69 7.2 44.9 31 -8.7 16.4
22:50 1007 29.74 836 24.69 7.2 45 32 -8.6 16.6
22:55 1007 29.74 836 24.69 7.1 44.8 32 -8.5 16.8
23:00 1007 29.74 837 24.72 7 44.6 33 -8.1 17.4
23:05 1007 29.74 837 24.72 6.7 44.1 34 -8 17.5
23:10 1007 29.74 837 24.72 6.3 43.4 36 -7.5 18.4
23:15 1008 29.77 837 24.72 5.9 42.6 38 -7.3 18.8
23:20 1008 29.77 837 24.72 5.5 41.9 39 -7.4 18.7
23:25 1008 29.77 837 24.72 5.4 41.8 38 -7.7 18.1
23:30 1008 29.77 837 24.72 5.5 42 38 -7.7 18.1
23:35 1008 29.77 837 24.72 5.6 42 37 -7.8 17.9
23:40 1007 29.74 837 24.72 5.6 42.2 37 -7.8 18
23:45 1007 29.74 837 24.72 5.7 42.2 38 -7.7 18.1
23:50 1007 29.74 837 24.72 5.7 42.2 37 -8 17.6
23:55 1007 29.74 837 24.72 5.9 42.6 35 -8.4 16.8
24:00 1007 29.74 837 24.72 6 42.9 35 -8.4 16.9